sensor_id;sensor_type;location;lat;lon;timestamp;temperature;humidity
56725;DHT22;42608;52.776;6.968;2022-10-23T00:01:45;12.10;99.90
56725;DHT22;42608;52.776;6.968;2022-10-23T00:04:12;12.00;99.90
56725;DHT22;42608;52.776;6.968;2022-10-23T00:06:39;12.00;99.90
56725;DHT22;42608;52.776;6.968;2022-10-23T00:09:05;12.00;99.90
56725;DHT22;42608;52.776;6.968;2022-10-23T00:11:31;12.00;99.90
56725;DHT22;42608;52.776;6.968;2022-10-23T00:13:59;12.10;99.90
56725;DHT22;42608;52.776;6.968;2022-10-23T00:16:25;12.00;99.90
56725;DHT22;42608;52.776;6.968;2022-10-23T00:18:51;12.00;99.90
56725;DHT22;42608;52.776;6.968;2022-10-23T00:21:16;12.00;99.90
56725;DHT22;42608;52.776;6.968;2022-10-23T00:23:43;12.00;99.90
56725;DHT22;42608;52.776;6.968;2022-10-23T00:26:08;12.00;99.90
56725;DHT22;42608;52.776;6.968;2022-10-23T00:28:41;12.00;99.90
56725;DHT22;42608;52.776;6.968;2022-10-23T00:31:07;12.00;99.90
56725;DHT22;42608;52.776;6.968;2022-10-23T00:33:32;12.00;99.90
56725;DHT22;42608;52.776;6.968;2022-10-23T00:35:58;12.00;99.90
56725;DHT22;42608;52.776;6.968;2022-10-23T00:38:23;12.00;99.90
56725;DHT22;42608;52.776;6.968;2022-10-23T00:40:49;12.00;99.90
56725;DHT22;42608;52.776;6.968;2022-10-23T00:43:16;12.00;99.90
56725;DHT22;42608;52.776;6.968;2022-10-23T00:45:42;12.00;99.90
56725;DHT22;42608;52.776;6.968;2022-10-23T00:48:08;12.00;99.90
56725;DHT22;42608;52.776;6.968;2022-10-23T00:50:34;12.00;99.90
56725;DHT22;42608;52.776;6.968;2022-10-23T00:53:01;12.00;99.90
56725;DHT22;42608;52.776;6.968;2022-10-23T00:55:27;12.00;99.90
56725;DHT22;42608;52.776;6.968;2022-10-23T00:57:53;12.00;99.90
56725;DHT22;42608;52.776;6.968;2022-10-23T01:00:24;12.00;99.90
56725;DHT22;42608;52.776;6.968;2022-10-23T01:02:51;12.00;99.90
56725;DHT22;42608;52.776;6.968;2022-10-23T01:05:18;12.00;99.90
56725;DHT22;42608;52.776;6.968;2022-10-23T01:10:14;11.90;99.90
56725;DHT22;42608;52.776;6.968;2022-10-23T01:15:19;11.90;99.90
56725;DHT22;42608;52.776;6.968;2022-10-23T01:17:58;11.90;99.90
56725;DHT22;42608;52.776;6.968;2022-10-23T01:20:43;11.90;99.90
56725;DHT22;42608;52.776;6.968;2022-10-23T01:26:29;11.90;99.90
56725;DHT22;42608;52.776;6.968;2022-10-23T01:28:45;11.90;99.90
56725;DHT22;42608;52.776;6.968;2022-10-23T01:31:17;11.90;99.90
56725;DHT22;42608;52.776;6.968;2022-10-23T01:33:45;11.90;99.90
56725;DHT22;42608;52.776;6.968;2022-10-23T01:36:13;11.90;99.90
56725;DHT22;42608;52.776;6.968;2022-10-23T01:38:40;11.90;99.90
56725;DHT22;42608;52.776;6.968;2022-10-23T01:41:11;11.80;99.90
56725;DHT22;42608;52.776;6.968;2022-10-23T01:43:45;11.80;99.90
56725;DHT22;42608;52.776;6.968;2022-10-23T01:46:14;11.80;99.90
56725;DHT22;42608;52.776;6.968;2022-10-23T01:48:41;11.80;99.90
56725;DHT22;42608;52.776;6.968;2022-10-23T01:51:07;11.80;99.90
56725;DHT22;42608;52.776;6.968;2022-10-23T01:53:36;11.80;99.90
56725;DHT22;42608;52.776;6.968;2022-10-23T01:56:07;11.70;99.90
56725;DHT22;42608;52.776;6.968;2022-10-23T01:58:33;11.80;99.90
56725;DHT22;42608;52.776;6.968;2022-10-23T02:01:00;11.80;99.90
56725;DHT22;42608;52.776;6.968;2022-10-23T02:03:27;11.70;99.90
56725;DHT22;42608;52.776;6.968;2022-10-23T02:05:54;11.70;99.90
56725;DHT22;42608;52.776;6.968;2022-10-23T02:08:20;11.70;99.90
56725;DHT22;42608;52.776;6.968;2022-10-23T02:15:58;11.70;99.90
56725;DHT22;42608;52.776;6.968;2022-10-23T02:18:30;11.60;99.90
56725;DHT22;42608;52.776;6.968;2022-10-23T02:20:59;11.60;99.90
56725;DHT22;42608;52.776;6.968;2022-10-23T02:23:33;11.60;99.90
56725;DHT22;42608;52.776;6.968;2022-10-23T02:28:39;11.50;99.90
56725;DHT22;42608;52.776;6.968;2022-10-23T02:31:08;11.50;99.90
56725;DHT22;42608;52.776;6.968;2022-10-23T02:33:34;11.50;99.90
56725;DHT22;42608;52.776;6.968;2022-10-23T02:36:00;11.50;99.90
56725;DHT22;42608;52.776;6.968;2022-10-23T02:38:28;11.50;99.90
56725;DHT22;42608;52.776;6.968;2022-10-23T02:40:54;11.50;99.90
56725;DHT22;42608;52.776;6.968;2022-10-23T02:43:26;11.40;99.90
56725;DHT22;42608;52.776;6.968;2022-10-23T02:45:57;11.40;99.90
56725;DHT22;42608;52.776;6.968;2022-10-23T02:48:47;11.30;99.90
56725;DHT22;42608;52.776;6.968;2022-10-23T02:51:33;11.30;99.90
56725;DHT22;42608;52.776;6.968;2022-10-23T02:54:06;11.30;99.90
56725;DHT22;42608;52.776;6.968;2022-10-23T02:56:41;11.20;99.90
56725;DHT22;42608;52.776;6.968;2022-10-23T03:01:50;11.20;99.90
56725;DHT22;42608;52.776;6.968;2022-10-23T03:04:17;11.20;99.90
56725;DHT22;42608;52.776;6.968;2022-10-23T03:06:44;11.20;99.90
56725;DHT22;42608;52.776;6.968;2022-10-23T03:09:10;11.20;99.90
56725;DHT22;42608;52.776;6.968;2022-10-23T03:11:36;11.10;99.90
56725;DHT22;42608;52.776;6.968;2022-10-23T03:14:01;11.10;99.90
56725;DHT22;42608;52.776;6.968;2022-10-23T03:16:27;11.10;99.90
56725;DHT22;42608;52.776;6.968;2022-10-23T03:18:52;11.10;99.90
56725;DHT22;42608;52.776;6.968;2022-10-23T03:21:18;11.00;99.90
56725;DHT22;42608;52.776;6.968;2022-10-23T03:23:44;11.00;99.90
56725;DHT22;42608;52.776;6.968;2022-10-23T03:26:09;11.00;99.90
56725;DHT22;42608;52.776;6.968;2022-10-23T03:28:35;11.00;99.90
56725;DHT22;42608;52.776;6.968;2022-10-23T03:31:01;11.00;99.90
56725;DHT22;42608;52.776;6.968;2022-10-23T03:33:27;11.00;99.90
56725;DHT22;42608;52.776;6.968;2022-10-23T03:35:52;11.00;99.90
56725;DHT22;42608;52.776;6.968;2022-10-23T03:38:18;11.00;99.90
56725;DHT22;42608;52.776;6.968;2022-10-23T03:40:44;11.00;99.90
56725;DHT22;42608;52.776;6.968;2022-10-23T03:43:09;11.00;99.90
56725;DHT22;42608;52.776;6.968;2022-10-23T03:45:35;11.00;99.90
56725;DHT22;42608;52.776;6.968;2022-10-23T03:48:05;11.00;99.90
56725;DHT22;42608;52.776;6.968;2022-10-23T03:50:31;11.00;99.90
56725;DHT22;42608;52.776;6.968;2022-10-23T03:52:56;11.00;99.90
56725;DHT22;42608;52.776;6.968;2022-10-23T03:55:22;11.00;99.90
56725;DHT22;42608;52.776;6.968;2022-10-23T03:57:49;11.00;99.90
56725;DHT22;42608;52.776;6.968;2022-10-23T04:00:15;11.00;99.90
56725;DHT22;42608;52.776;6.968;2022-10-23T04:02:41;11.00;99.90
56725;DHT22;42608;52.776;6.968;2022-10-23T04:05:06;11.00;99.90
56725;DHT22;42608;52.776;6.968;2022-10-23T04:07:32;11.00;99.90
56725;DHT22;42608;52.776;6.968;2022-10-23T04:09:57;11.00;99.90
56725;DHT22;42608;52.776;6.968;2022-10-23T04:12:23;11.00;99.90
56725;DHT22;42608;52.776;6.968;2022-10-23T04:14:48;11.00;99.90
56725;DHT22;42608;52.776;6.968;2022-10-23T04:17:14;11.00;99.90
56725;DHT22;42608;52.776;6.968;2022-10-23T04:19:39;11.00;99.90
56725;DHT22;42608;52.776;6.968;2022-10-23T04:22:05;11.00;99.90
56725;DHT22;42608;52.776;6.968;2022-10-23T04:24:30;11.00;99.90
56725;DHT22;42608;52.776;6.968;2022-10-23T04:26:56;11.00;99.90
56725;DHT22;42608;52.776;6.968;2022-10-23T04:29:21;11.00;99.90
56725;DHT22;42608;52.776;6.968;2022-10-23T04:31:49;11.00;99.90
56725;DHT22;42608;52.776;6.968;2022-10-23T04:34:16;11.00;99.90
56725;DHT22;42608;52.776;6.968;2022-10-23T04:36:41;10.90;99.90
56725;DHT22;42608;52.776;6.968;2022-10-23T04:39:07;11.00;99.90
56725;DHT22;42608;52.776;6.968;2022-10-23T04:41:32;11.00;99.90
56725;DHT22;42608;52.776;6.968;2022-10-23T04:43:58;11.00;99.90
56725;DHT22;42608;52.776;6.968;2022-10-23T04:46:23;11.00;99.90
56725;DHT22;42608;52.776;6.968;2022-10-23T04:48:49;11.00;99.90
56725;DHT22;42608;52.776;6.968;2022-10-23T04:51:15;11.00;99.90
56725;DHT22;42608;52.776;6.968;2022-10-23T04:53:40;10.90;99.90
56725;DHT22;42608;52.776;6.968;2022-10-23T04:56:06;10.90;99.90
56725;DHT22;42608;52.776;6.968;2022-10-23T04:58:31;10.90;99.90
56725;DHT22;42608;52.776;6.968;2022-10-23T05:00:57;10.90;99.90
56725;DHT22;42608;52.776;6.968;2022-10-23T05:03:23;10.90;99.90
56725;DHT22;42608;52.776;6.968;2022-10-23T05:05:51;10.90;99.90
56725;DHT22;42608;52.776;6.968;2022-10-23T05:08:16;10.90;99.90
56725;DHT22;42608;52.776;6.968;2022-10-23T05:10:42;10.90;99.90
56725;DHT22;42608;52.776;6.968;2022-10-23T05:13:07;10.90;99.90
56725;DHT22;42608;52.776;6.968;2022-10-23T05:15:33;10.90;99.90
56725;DHT22;42608;52.776;6.968;2022-10-23T05:18:04;10.90;99.90
56725;DHT22;42608;52.776;6.968;2022-10-23T05:20:33;10.90;99.90
56725;DHT22;42608;52.776;6.968;2022-10-23T05:23:00;10.90;99.90
56725;DHT22;42608;52.776;6.968;2022-10-23T05:25:27;10.90;99.90
56725;DHT22;42608;52.776;6.968;2022-10-23T05:27:52;10.90;99.90
56725;DHT22;42608;52.776;6.968;2022-10-23T05:30:18;10.90;99.90
56725;DHT22;42608;52.776;6.968;2022-10-23T05:32:43;10.90;99.90
56725;DHT22;42608;52.776;6.968;2022-10-23T05:35:10;10.90;99.90
56725;DHT22;42608;52.776;6.968;2022-10-23T05:37:37;10.80;99.90
56725;DHT22;42608;52.776;6.968;2022-10-23T05:40:04;10.80;99.90
56725;DHT22;42608;52.776;6.968;2022-10-23T05:42:30;10.80;99.90
56725;DHT22;42608;52.776;6.968;2022-10-23T05:44:55;10.80;99.90
56725;DHT22;42608;52.776;6.968;2022-10-23T05:47:21;10.80;99.90
56725;DHT22;42608;52.776;6.968;2022-10-23T05:49:46;10.80;99.90
56725;DHT22;42608;52.776;6.968;2022-10-23T05:52:12;10.80;99.90
56725;DHT22;42608;52.776;6.968;2022-10-23T05:54:38;10.80;99.90
56725;DHT22;42608;52.776;6.968;2022-10-23T05:57:03;10.80;99.90
56725;DHT22;42608;52.776;6.968;2022-10-23T05:59:29;10.80;99.90
56725;DHT22;42608;52.776;6.968;2022-10-23T06:01:54;10.80;99.90
56725;DHT22;42608;52.776;6.968;2022-10-23T06:04:20;10.80;99.90
56725;DHT22;42608;52.776;6.968;2022-10-23T06:06:45;10.80;99.90
56725;DHT22;42608;52.776;6.968;2022-10-23T06:09:11;10.80;99.90
56725;DHT22;42608;52.776;6.968;2022-10-23T06:11:36;10.80;99.90
56725;DHT22;42608;52.776;6.968;2022-10-23T06:14:02;10.80;99.90
56725;DHT22;42608;52.776;6.968;2022-10-23T06:16:28;10.80;99.90
56725;DHT22;42608;52.776;6.968;2022-10-23T06:18:53;10.80;99.90
56725;DHT22;42608;52.776;6.968;2022-10-23T06:21:19;10.80;99.90
56725;DHT22;42608;52.776;6.968;2022-10-23T06:23:45;10.80;99.90
56725;DHT22;42608;52.776;6.968;2022-10-23T06:26:11;10.80;99.90
56725;DHT22;42608;52.776;6.968;2022-10-23T06:28:37;10.80;99.90
56725;DHT22;42608;52.776;6.968;2022-10-23T06:31:03;10.90;99.90
56725;DHT22;42608;52.776;6.968;2022-10-23T06:33:29;10.90;99.90
56725;DHT22;42608;52.776;6.968;2022-10-23T06:35:55;10.90;99.90
56725;DHT22;42608;52.776;6.968;2022-10-23T06:38:20;10.90;99.90
56725;DHT22;42608;52.776;6.968;2022-10-23T06:40:50;10.90;99.90
56725;DHT22;42608;52.776;6.968;2022-10-23T06:43:16;10.90;99.90
56725;DHT22;42608;52.776;6.968;2022-10-23T06:45:41;10.90;99.90
56725;DHT22;42608;52.776;6.968;2022-10-23T06:48:07;10.90;99.90
56725;DHT22;42608;52.776;6.968;2022-10-23T06:50:32;10.90;99.90
56725;DHT22;42608;52.776;6.968;2022-10-23T06:52:58;11.00;99.90
56725;DHT22;42608;52.776;6.968;2022-10-23T06:55:23;11.00;99.90
56725;DHT22;42608;52.776;6.968;2022-10-23T06:57:49;11.00;99.90
56725;DHT22;42608;52.776;6.968;2022-10-23T07:00:15;11.00;99.90
56725;DHT22;42608;52.776;6.968;2022-10-23T07:02:40;11.00;99.90
56725;DHT22;42608;52.776;6.968;2022-10-23T07:05:06;11.10;99.90
56725;DHT22;42608;52.776;6.968;2022-10-23T07:07:31;11.10;99.90
56725;DHT22;42608;52.776;6.968;2022-10-23T07:09:57;11.10;99.90
56725;DHT22;42608;52.776;6.968;2022-10-23T07:12:23;11.10;99.90
56725;DHT22;42608;52.776;6.968;2022-10-23T07:14:48;11.10;99.90
56725;DHT22;42608;52.776;6.968;2022-10-23T07:17:14;11.20;99.90
56725;DHT22;42608;52.776;6.968;2022-10-23T07:19:40;11.20;99.90
56725;DHT22;42608;52.776;6.968;2022-10-23T07:22:05;11.20;99.90
56725;DHT22;42608;52.776;6.968;2022-10-23T07:24:31;11.20;99.90
56725;DHT22;42608;52.776;6.968;2022-10-23T07:27:01;11.20;99.90
56725;DHT22;42608;52.776;6.968;2022-10-23T07:29:27;11.20;99.90
56725;DHT22;42608;52.776;6.968;2022-10-23T07:31:53;11.30;99.90
56725;DHT22;42608;52.776;6.968;2022-10-23T07:34:18;11.30;99.90
56725;DHT22;42608;52.776;6.968;2022-10-23T07:36:44;11.30;99.90
56725;DHT22;42608;52.776;6.968;2022-10-23T07:39:10;11.30;99.90
56725;DHT22;42608;52.776;6.968;2022-10-23T07:41:36;11.30;99.90
56725;DHT22;42608;52.776;6.968;2022-10-23T07:44:01;11.30;99.90
56725;DHT22;42608;52.776;6.968;2022-10-23T07:46:27;11.30;99.90
56725;DHT22;42608;52.776;6.968;2022-10-23T07:48:53;11.40;99.90
56725;DHT22;42608;52.776;6.968;2022-10-23T07:51:18;11.40;99.90
56725;DHT22;42608;52.776;6.968;2022-10-23T07:53:44;11.40;99.90
56725;DHT22;42608;52.776;6.968;2022-10-23T07:56:17;11.50;99.90
56725;DHT22;42608;52.776;6.968;2022-10-23T07:58:43;11.50;99.90
56725;DHT22;42608;52.776;6.968;2022-10-23T08:01:12;11.50;99.90
56725;DHT22;42608;52.776;6.968;2022-10-23T08:03:39;11.50;99.90
56725;DHT22;42608;52.776;6.968;2022-10-23T08:06:04;11.50;99.90
56725;DHT22;42608;52.776;6.968;2022-10-23T08:08:30;11.60;99.90
56725;DHT22;42608;52.776;6.968;2022-10-23T08:10:56;11.60;99.90
56725;DHT22;42608;52.776;6.968;2022-10-23T08:13:21;11.60;99.90
56725;DHT22;42608;52.776;6.968;2022-10-23T08:15:48;11.70;99.90
56725;DHT22;42608;52.776;6.968;2022-10-23T08:18:15;11.70;99.90
56725;DHT22;42608;52.776;6.968;2022-10-23T08:20:41;11.70;99.90
56725;DHT22;42608;52.776;6.968;2022-10-23T08:23:08;11.80;99.90
56725;DHT22;42608;52.776;6.968;2022-10-23T08:25:33;11.80;99.90
56725;DHT22;42608;52.776;6.968;2022-10-23T08:27:59;11.80;99.90
56725;DHT22;42608;52.776;6.968;2022-10-23T08:30:25;11.90;99.90
56725;DHT22;42608;52.776;6.968;2022-10-23T08:32:51;11.90;99.90
56725;DHT22;42608;52.776;6.968;2022-10-23T08:35:17;11.90;99.90
56725;DHT22;42608;52.776;6.968;2022-10-23T08:37:42;11.90;99.90
56725;DHT22;42608;52.776;6.968;2022-10-23T08:40:13;12.00;99.90
56725;DHT22;42608;52.776;6.968;2022-10-23T08:42:39;12.00;99.90
56725;DHT22;42608;52.776;6.968;2022-10-23T08:47:50;12.10;99.90
56725;DHT22;42608;52.776;6.968;2022-10-23T08:50:25;12.10;99.90
56725;DHT22;42608;52.776;6.968;2022-10-23T08:55:39;12.20;99.90
56725;DHT22;42608;52.776;6.968;2022-10-23T08:58:09;12.30;99.90
56725;DHT22;42608;52.776;6.968;2022-10-23T09:00:40;12.30;99.90
56725;DHT22;42608;52.776;6.968;2022-10-23T09:03:08;12.40;99.90
56725;DHT22;42608;52.776;6.968;2022-10-23T09:05:38;12.40;99.90
56725;DHT22;42608;52.776;6.968;2022-10-23T09:10:36;12.50;99.90
56725;DHT22;42608;52.776;6.968;2022-10-23T09:13:11;12.50;99.90
56725;DHT22;42608;52.776;6.968;2022-10-23T09:15:46;12.60;99.90
56725;DHT22;42608;52.776;6.968;2022-10-23T09:18:15;12.70;99.90
56725;DHT22;42608;52.776;6.968;2022-10-23T09:20:43;12.70;99.90
56725;DHT22;42608;52.776;6.968;2022-10-23T09:23:16;12.70;99.90
56725;DHT22;42608;52.776;6.968;2022-10-23T09:25:42;12.80;99.90
56725;DHT22;42608;52.776;6.968;2022-10-23T09:28:21;12.80;99.90
56725;DHT22;42608;52.776;6.968;2022-10-23T09:30:47;12.80;99.90
56725;DHT22;42608;52.776;6.968;2022-10-23T09:33:14;12.90;99.90
56725;DHT22;42608;52.776;6.968;2022-10-23T09:35:50;12.90;99.90
56725;DHT22;42608;52.776;6.968;2022-10-23T09:38:26;12.90;99.90
56725;DHT22;42608;52.776;6.968;2022-10-23T09:40:52;13.00;99.90
56725;DHT22;42608;52.776;6.968;2022-10-23T09:43:18;13.00;99.90
56725;DHT22;42608;52.776;6.968;2022-10-23T09:45:58;13.10;99.90
56725;DHT22;42608;52.776;6.968;2022-10-23T09:48:24;13.10;99.90
56725;DHT22;42608;52.776;6.968;2022-10-23T09:50:51;13.10;99.90
56725;DHT22;42608;52.776;6.968;2022-10-23T09:53:18;13.20;99.90
56725;DHT22;42608;52.776;6.968;2022-10-23T09:55:50;13.30;99.90
56725;DHT22;42608;52.776;6.968;2022-10-23T09:58:18;13.30;99.90
56725;DHT22;42608;52.776;6.968;2022-10-23T10:00:45;13.40;99.90
56725;DHT22;42608;52.776;6.968;2022-10-23T10:03:20;13.40;99.90
56725;DHT22;42608;52.776;6.968;2022-10-23T10:06:00;13.50;99.90
56725;DHT22;42608;52.776;6.968;2022-10-23T10:08:31;13.60;99.90
56725;DHT22;42608;52.776;6.968;2022-10-23T10:13:35;13.70;99.90
56725;DHT22;42608;52.776;6.968;2022-10-23T10:16:07;13.70;99.90
56725;DHT22;42608;52.776;6.968;2022-10-23T10:18:38;13.80;99.90
56725;DHT22;42608;52.776;6.968;2022-10-23T10:23:49;13.90;99.90
56725;DHT22;42608;52.776;6.968;2022-10-23T10:28:49;14.00;99.90
56725;DHT22;42608;52.776;6.968;2022-10-23T10:39:03;14.10;99.90
56725;DHT22;42608;52.776;6.968;2022-10-23T10:49:39;14.30;99.90
56725;DHT22;42608;52.776;6.968;2022-10-23T10:59:51;14.50;99.90
56725;DHT22;42608;52.776;6.968;2022-10-23T11:02:22;14.60;99.90
56725;DHT22;42608;52.776;6.968;2022-10-23T11:07:17;14.70;99.90
56725;DHT22;42608;52.776;6.968;2022-10-23T11:09:45;14.70;99.90
56725;DHT22;42608;52.776;6.968;2022-10-23T11:12:17;14.70;99.90
56725;DHT22;42608;52.776;6.968;2022-10-23T11:14:43;14.70;99.90
56725;DHT22;42608;52.776;6.968;2022-10-23T11:17:25;14.70;99.90
56725;DHT22;42608;52.776;6.968;2022-10-23T11:25:02;14.80;99.90
56725;DHT22;42608;52.776;6.968;2022-10-23T11:37:57;14.80;99.90
56725;DHT22;42608;52.776;6.968;2022-10-23T11:40:23;14.90;99.90
56725;DHT22;42608;52.776;6.968;2022-10-23T11:42:49;14.90;99.90
56725;DHT22;42608;52.776;6.968;2022-10-23T11:58:45;15.00;99.90
56725;DHT22;42608;52.776;6.968;2022-10-23T12:03:48;15.10;99.90
56725;DHT22;42608;52.776;6.968;2022-10-23T12:06:23;15.10;99.90
56725;DHT22;42608;52.776;6.968;2022-10-23T12:08:51;15.10;99.90
56725;DHT22;42608;52.776;6.968;2022-10-23T12:11:23;15.20;99.90
56725;DHT22;42608;52.776;6.968;2022-10-23T12:13:49;15.20;99.90
56725;DHT22;42608;52.776;6.968;2022-10-23T12:16:15;15.30;99.90
56725;DHT22;42608;52.776;6.968;2022-10-23T12:18:53;15.20;99.90
56725;DHT22;42608;52.776;6.968;2022-10-23T12:21:19;15.30;99.90
56725;DHT22;42608;52.776;6.968;2022-10-23T12:29:10;15.30;99.90
56725;DHT22;42608;52.776;6.968;2022-10-23T12:34:24;15.40;99.90
56725;DHT22;42608;52.776;6.968;2022-10-23T12:37:09;15.40;99.90
56725;DHT22;42608;52.776;6.968;2022-10-23T12:39:38;15.40;99.90
56725;DHT22;42608;52.776;6.968;2022-10-23T12:42:14;15.40;99.90
56725;DHT22;42608;52.776;6.968;2022-10-23T12:44:41;15.50;99.90
56725;DHT22;42608;52.776;6.968;2022-10-23T12:47:10;15.50;99.90
56725;DHT22;42608;52.776;6.968;2022-10-23T12:49:38;15.60;99.90
56725;DHT22;42608;52.776;6.968;2022-10-23T12:52:16;15.60;99.90
56725;DHT22;42608;52.776;6.968;2022-10-23T12:54:42;15.50;99.90
56725;DHT22;42608;52.776;6.968;2022-10-23T12:59:46;15.60;99.90
56725;DHT22;42608;52.776;6.968;2022-10-23T13:02:22;15.60;99.90
56725;DHT22;42608;52.776;6.968;2022-10-23T13:04:48;15.60;99.90
56725;DHT22;42608;52.776;6.968;2022-10-23T13:07:14;15.60;99.90
56725;DHT22;42608;52.776;6.968;2022-10-23T13:09:41;15.60;99.90
56725;DHT22;42608;52.776;6.968;2022-10-23T13:12:07;15.60;99.90
56725;DHT22;42608;52.776;6.968;2022-10-23T13:14:35;15.70;99.90
56725;DHT22;42608;52.776;6.968;2022-10-23T13:17:02;15.60;99.90
56725;DHT22;42608;52.776;6.968;2022-10-23T13:19:28;15.70;99.90
56725;DHT22;42608;52.776;6.968;2022-10-23T13:21:53;15.60;99.90
56725;DHT22;42608;52.776;6.968;2022-10-23T13:24:19;15.70;99.90
56725;DHT22;42608;52.776;6.968;2022-10-23T13:26:46;15.70;99.90
56725;DHT22;42608;52.776;6.968;2022-10-23T13:29:30;15.70;99.90
56725;DHT22;42608;52.776;6.968;2022-10-23T13:32:08;15.70;99.90
56725;DHT22;42608;52.776;6.968;2022-10-23T13:34:33;15.70;99.90
56725;DHT22;42608;52.776;6.968;2022-10-23T13:37:22;15.70;99.90
56725;DHT22;42608;52.776;6.968;2022-10-23T13:39:57;15.80;99.90
56725;DHT22;42608;52.776;6.968;2022-10-23T13:42:23;15.80;99.90
56725;DHT22;42608;52.776;6.968;2022-10-23T13:44:48;15.80;99.90
56725;DHT22;42608;52.776;6.968;2022-10-23T13:47:14;15.80;99.90
56725;DHT22;42608;52.776;6.968;2022-10-23T13:49:40;15.80;99.90
56725;DHT22;42608;52.776;6.968;2022-10-23T13:52:07;15.80;99.90
56725;DHT22;42608;52.776;6.968;2022-10-23T13:54:33;15.80;99.90
56725;DHT22;42608;52.776;6.968;2022-10-23T13:56:59;15.80;99.90
56725;DHT22;42608;52.776;6.968;2022-10-23T13:59:24;15.80;99.90
56725;DHT22;42608;52.776;6.968;2022-10-23T14:01:50;15.80;99.90
56725;DHT22;42608;52.776;6.968;2022-10-23T14:04:16;15.80;99.90
56725;DHT22;42608;52.776;6.968;2022-10-23T14:06:42;15.80;99.90
56725;DHT22;42608;52.776;6.968;2022-10-23T14:09:16;15.80;99.90
56725;DHT22;42608;52.776;6.968;2022-10-23T14:11:42;15.90;99.90
56725;DHT22;42608;52.776;6.968;2022-10-23T14:14:08;15.90;99.90
56725;DHT22;42608;52.776;6.968;2022-10-23T14:16:33;15.90;99.90
56725;DHT22;42608;52.776;6.968;2022-10-23T14:18:59;15.80;99.90
56725;DHT22;42608;52.776;6.968;2022-10-23T14:21:24;15.80;99.90
56725;DHT22;42608;52.776;6.968;2022-10-23T14:23:51;15.80;99.90
56725;DHT22;42608;52.776;6.968;2022-10-23T14:26:19;15.80;99.90
56725;DHT22;42608;52.776;6.968;2022-10-23T14:28:45;15.80;99.90
56725;DHT22;42608;52.776;6.968;2022-10-23T14:31:11;15.80;99.90
56725;DHT22;42608;52.776;6.968;2022-10-23T14:33:37;15.80;99.90
56725;DHT22;42608;52.776;6.968;2022-10-23T14:36:03;15.80;99.90
56725;DHT22;42608;52.776;6.968;2022-10-23T14:38:28;15.80;99.90
56725;DHT22;42608;52.776;6.968;2022-10-23T14:40:54;15.80;99.90
56725;DHT22;42608;52.776;6.968;2022-10-23T14:43:20;15.80;99.90
56725;DHT22;42608;52.776;6.968;2022-10-23T14:45:46;15.80;99.90
56725;DHT22;42608;52.776;6.968;2022-10-23T14:48:11;15.80;99.90
56725;DHT22;42608;52.776;6.968;2022-10-23T14:50:41;15.80;99.90
56725;DHT22;42608;52.776;6.968;2022-10-23T14:53:07;15.80;99.90
56725;DHT22;42608;52.776;6.968;2022-10-23T14:55:32;15.80;99.90
56725;DHT22;42608;52.776;6.968;2022-10-23T14:57:58;15.80;99.90
56725;DHT22;42608;52.776;6.968;2022-10-23T15:00:23;15.80;99.90
56725;DHT22;42608;52.776;6.968;2022-10-23T15:02:49;15.80;99.90
56725;DHT22;42608;52.776;6.968;2022-10-23T15:05:15;15.70;99.90
56725;DHT22;42608;52.776;6.968;2022-10-23T15:07:40;15.70;99.90
56725;DHT22;42608;52.776;6.968;2022-10-23T15:10:06;15.80;99.90
56725;DHT22;42608;52.776;6.968;2022-10-23T15:12:33;15.70;99.90
56725;DHT22;42608;52.776;6.968;2022-10-23T15:14:59;15.70;99.90
56725;DHT22;42608;52.776;6.968;2022-10-23T15:17:24;15.70;99.90
56725;DHT22;42608;52.776;6.968;2022-10-23T15:19:50;15.70;99.90
56725;DHT22;42608;52.776;6.968;2022-10-23T15:22:15;15.70;99.90
56725;DHT22;42608;52.776;6.968;2022-10-23T15:24:41;15.70;99.90
56725;DHT22;42608;52.776;6.968;2022-10-23T15:27:07;15.70;99.90
56725;DHT22;42608;52.776;6.968;2022-10-23T15:29:32;15.70;99.90
56725;DHT22;42608;52.776;6.968;2022-10-23T15:31:58;15.70;99.90
56725;DHT22;42608;52.776;6.968;2022-10-23T15:34:26;15.70;99.90
56725;DHT22;42608;52.776;6.968;2022-10-23T15:36:52;15.70;99.90
56725;DHT22;42608;52.776;6.968;2022-10-23T15:39:19;15.70;99.90
56725;DHT22;42608;52.776;6.968;2022-10-23T15:41:45;15.70;99.90
56725;DHT22;42608;52.776;6.968;2022-10-23T15:44:12;15.70;99.90
56725;DHT22;42608;52.776;6.968;2022-10-23T15:46:38;15.70;99.90
56725;DHT22;42608;52.776;6.968;2022-10-23T15:49:03;15.70;99.90
56725;DHT22;42608;52.776;6.968;2022-10-23T15:51:29;15.60;99.90
56725;DHT22;42608;52.776;6.968;2022-10-23T15:53:55;15.60;99.90
56725;DHT22;42608;52.776;6.968;2022-10-23T15:56:22;15.60;99.90
56725;DHT22;42608;52.776;6.968;2022-10-23T15:58:48;15.60;99.90
56725;DHT22;42608;52.776;6.968;2022-10-23T16:01:13;15.60;99.90
56725;DHT22;42608;52.776;6.968;2022-10-23T16:03:39;15.50;99.90
56725;DHT22;42608;52.776;6.968;2022-10-23T16:06:05;15.50;99.90
56725;DHT22;42608;52.776;6.968;2022-10-23T16:08:32;15.50;99.90
56725;DHT22;42608;52.776;6.968;2022-10-23T16:10:57;15.50;99.90
56725;DHT22;42608;52.776;6.968;2022-10-23T16:13:24;15.50;99.90
56725;DHT22;42608;52.776;6.968;2022-10-23T16:15:50;15.50;99.90
56725;DHT22;42608;52.776;6.968;2022-10-23T16:18:16;15.50;99.90
56725;DHT22;42608;52.776;6.968;2022-10-23T16:20:43;15.50;99.90
56725;DHT22;42608;52.776;6.968;2022-10-23T16:23:08;15.40;99.90
56725;DHT22;42608;52.776;6.968;2022-10-23T16:25:34;15.40;99.90
56725;DHT22;42608;52.776;6.968;2022-10-23T16:28:00;15.40;99.90
56725;DHT22;42608;52.776;6.968;2022-10-23T16:30:26;15.40;99.90
56725;DHT22;42608;52.776;6.968;2022-10-23T16:32:51;15.40;99.90
56725;DHT22;42608;52.776;6.968;2022-10-23T16:35:17;15.40;99.90
56725;DHT22;42608;52.776;6.968;2022-10-23T16:37:42;15.30;99.90
56725;DHT22;42608;52.776;6.968;2022-10-23T16:40:08;15.40;99.90
56725;DHT22;42608;52.776;6.968;2022-10-23T16:42:34;15.40;99.90
56725;DHT22;42608;52.776;6.968;2022-10-23T16:44:59;15.30;99.90
56725;DHT22;42608;52.776;6.968;2022-10-23T16:47:25;15.30;99.90
56725;DHT22;42608;52.776;6.968;2022-10-23T16:49:50;15.30;99.90
56725;DHT22;42608;52.776;6.968;2022-10-23T16:52:16;15.30;99.90
56725;DHT22;42608;52.776;6.968;2022-10-23T16:54:42;15.30;99.90
56725;DHT22;42608;52.776;6.968;2022-10-23T16:57:08;15.30;99.90
56725;DHT22;42608;52.776;6.968;2022-10-23T16:59:33;15.30;99.90
56725;DHT22;42608;52.776;6.968;2022-10-23T17:01:59;15.30;99.90
56725;DHT22;42608;52.776;6.968;2022-10-23T17:04:24;15.30;99.90
56725;DHT22;42608;52.776;6.968;2022-10-23T17:06:50;15.30;99.90
56725;DHT22;42608;52.776;6.968;2022-10-23T17:09:16;15.20;99.90
56725;DHT22;42608;52.776;6.968;2022-10-23T17:11:43;15.20;99.90
56725;DHT22;42608;52.776;6.968;2022-10-23T17:14:10;15.20;99.90